Check out our new BloomSky Weather System.

Active alerts


No alerts


Thunder radar  blitzortung!


Rain radar more information rain snow radar


Visit our other weather sites:

Template documentation
and downloads

And another site



Weather Underground History page Text

Daily Summary for June 12, 2017 Units:  English    Metric   Both
« Previous Day
Next Day »
Daily Weekly Monthly Yearly Custom
  High: Low: Average:
Temperature: 91.2 °F 77.5 °F 83.9 °F
Dew Point: 78.6 °F 73.8 °F 76.6 °F
Humidity: 96 % 61 % 80 %
Wind Speed: 12.0 mph 0.0 mph 3.6 mph
Wind Gust: 17.0 mph - -
Wind:- - SE
Pressure: 29.94 in 29.86 in -
Precipitation: 0.00 in    
Historical Graphs
 
 
Tabular Data for June 12, 2017
Time Temperature Dew Point Pressure Wind Wind Speed Wind Gust Humidity Rainfall Rate (Hourly)
00:02 80.2 °F 77.0 °F 29.92 in SE 2.0 mph 5.0 mph 90 % 0.00 in
00:07 80.2 °F 77.0 °F 29.92 in ESE 2.0 mph 5.0 mph 90 % 0.00 in
00:12 80.2 °F 77.0 °F 29.93 in SE 2.0 mph 5.0 mph 90 % 0.00 in
00:17 80.2 °F 77.0 °F 29.93 in SSE 3.0 mph 5.0 mph 90 % 0.00 in
00:22 80.2 °F 77.0 °F 29.93 in East 2.0 mph 6.0 mph 90 % 0.00 in
00:27 80.1 °F 76.8 °F 29.92 in ESE 2.0 mph 6.0 mph 90 % 0.00 in
00:32 80.1 °F 76.8 °F 29.92 in SSE 3.0 mph 6.0 mph 90 % 0.00 in
00:37 80.1 °F 77.2 °F 29.92 in ESE 2.0 mph 4.0 mph 91 % 0.00 in
00:42 80.1 °F 77.2 °F 29.92 in SE 1.0 mph 4.0 mph 91 % 0.00 in
00:47 79.9 °F 77.0 °F 29.92 in ESE 2.0 mph 4.0 mph 91 % 0.00 in
00:52 79.9 °F 77.0 °F 29.91 in SSE 3.0 mph 4.0 mph 91 % 0.00 in
00:57 79.9 °F 77.0 °F 29.91 in ESE 3.0 mph 4.0 mph 91 % 0.00 in
01:02 79.9 °F 77.0 °F 29.91 in ESE 4.0 mph 4.0 mph 91 % 0.00 in
01:07 79.7 °F 76.8 °F 29.91 in SE 1.0 mph 5.0 mph 91 % 0.00 in
01:12 79.5 °F 76.6 °F 29.90 in East 1.0 mph 5.0 mph 91 % 0.00 in
01:17 79.5 °F 76.6 °F 29.91 in East 3.0 mph 5.0 mph 91 % 0.00 in
01:22 79.3 °F 76.5 °F 29.91 in SE 1.0 mph 3.0 mph 91 % 0.00 in
01:27 79.3 °F 76.5 °F 29.91 in ESE 1.0 mph 3.0 mph 91 % 0.00 in
01:32 79.2 °F 76.6 °F 29.91 in Calm   3.0 mph 92 % 0.00 in
01:37 79.2 °F 76.6 °F 29.91 in Calm   3.0 mph 92 % 0.00 in
01:42 79.2 °F 76.6 °F 29.91 in Calm   3.0 mph 92 % 0.00 in
01:47 79.2 °F 76.6 °F 29.91 in SE 1.0 mph 3.0 mph 92 % 0.00 in
01:52 79.0 °F 76.5 °F 29.90 in SE 3.0 mph 3.0 mph 92 % 0.00 in
01:54 79.0 °F 76.5 °F 29.90 in SE 1.0 mph 2.0 mph 92 % 0.00 in
01:59 79.0 °F 76.5 °F 29.90 in East 1.0 mph 4.0 mph 92 % 0.00 in
02:04 79.0 °F 76.5 °F 29.90 in East 1.0 mph 4.0 mph 92 % 0.00 in
02:09 78.8 °F 76.3 °F 29.90 in ESE 2.0 mph 4.0 mph 92 % 0.00 in
02:14 78.6 °F 76.1 °F 29.90 in SE 1.0 mph 2.0 mph 92 % 0.00 in
02:19 78.6 °F 76.5 °F 29.89 in Calm   2.0 mph 93 % 0.00 in
02:24 78.6 °F 76.5 °F 29.89 in ESE 1.0 mph 2.0 mph 93 % 0.00 in
02:29 78.4 °F 76.3 °F 29.89 in Calm   3.0 mph 93 % 0.00 in
02:34 78.4 °F 76.3 °F 29.90 in Calm   3.0 mph 93 % 0.00 in
02:39 78.4 °F 76.3 °F 29.90 in Calm   3.0 mph 93 % 0.00 in
02:44 78.3 °F 76.1 °F 29.89 in Calm   2.0 mph 93 % 0.00 in
02:49 78.3 °F 76.1 °F 29.89 in ESE 2.0 mph 3.0 mph 93 % 0.00 in
02:54 78.3 °F 76.5 °F 29.89 in ESE 2.0 mph 3.0 mph 94 % 0.00 in
02:59 78.3 °F 76.5 °F 29.89 in Calm   3.0 mph 94 % 0.00 in
03:04 78.3 °F 76.5 °F 29.89 in Calm   3.0 mph 94 % 0.00 in
03:09 78.3 °F 76.5 °F 29.89 in Calm   2.0 mph 94 % 0.00 in
03:14 78.1 °F 76.3 °F 29.89 in Calm   2.0 mph 94 % 0.00 in
03:19 78.1 °F 76.3 °F 29.89 in Calm   2.0 mph 94 % 0.00 in
03:24 78.1 °F 76.3 °F 29.89 in Calm   1.0 mph 94 % 0.00 in
03:29 78.1 °F 76.3 °F 29.89 in Calm   1.0 mph 94 % 0.00 in
03:34 77.9 °F 76.1 °F 29.89 in Calm   1.0 mph 94 % 0.00 in
03:39 77.9 °F 76.1 °F 29.89 in Calm   1.0 mph 94 % 0.00 in
03:44 77.7 °F 76.1 °F 29.89 in ESE 1.0 mph 1.0 mph 95 % 0.00 in
03:49 77.7 °F 76.1 °F 29.88 in Calm   1.0 mph 95 % 0.00 in
03:54 77.7 °F 76.1 °F 29.88 in Calm   1.0 mph 95 % 0.00 in
03:59 77.7 °F 76.1 °F 29.89 in Calm   1.0 mph 95 % 0.00 in
04:04 77.7 °F 76.1 °F 29.88 in Calm   1.0 mph 95 % 0.00 in
04:09 77.7 °F 76.1 °F 29.89 in Calm   1.0 mph 95 % 0.00 in
04:14 77.7 °F 76.1 °F 29.89 in Calm   1.0 mph 95 % 0.00 in
04:19 77.9 °F 76.3 °F 29.89 in Calm   1.0 mph 95 % 0.00 in
04:24 78.1 °F 76.5 °F 29.89 in ESE 1.0 mph 1.0 mph 95 % 0.00 in
04:29 78.1 °F 76.5 °F 29.89 in Calm   2.0 mph 95 % 0.00 in
04:30 78.1 °F 76.5 °F 29.89 in Calm   2.0 mph 95 % 0.00 in
04:35 78.1 °F 76.5 °F 29.89 in East 2.0 mph 3.0 mph 95 % 0.00 in
04:40 78.1 °F 76.5 °F 29.89 in Calm   3.0 mph 95 % 0.00 in
04:45 78.3 °F 76.6 °F 29.89 in Calm   3.0 mph 95 % 0.00 in
04:50 78.3 °F 76.6 °F 29.89 in Calm   3.0 mph 95 % 0.00 in
04:55 78.3 °F 76.6 °F 29.89 in Calm   2.0 mph 95 % 0.00 in
05:00 78.4 °F 76.8 °F 29.89 in Calm   3.0 mph 95 % 0.00 in
05:05 78.4 °F 76.8 °F 29.88 in SE 1.0 mph 3.0 mph 95 % 0.00 in
05:08 78.4 °F 76.8 °F 29.89 in Calm   3.0 mph 95 % 0.00 in
05:13 78.4 °F 76.8 °F 29.89 in SE 1.0 mph 3.0 mph 95 % 0.00 in
05:18 78.4 °F 76.8 °F 29.89 in Calm   2.0 mph 95 % 0.00 in
05:23 78.4 °F 76.8 °F 29.89 in Calm   2.0 mph 95 % 0.00 in
05:28 78.4 °F 76.8 °F 29.89 in Calm   2.0 mph 95 % 0.00 in
05:33 78.3 °F 76.6 °F 29.89 in Calm   2.0 mph 95 % 0.00 in
05:38 78.3 °F 76.6 °F 29.89 in Calm   2.0 mph 95 % 0.00 in
05:43 78.3 °F 76.6 °F 29.89 in Calm   2.0 mph 95 % 0.00 in
05:44 78.3 °F 76.6 °F 29.89 in SE 1.0 mph 2.0 mph 95 % 0.00 in
05:49 78.3 °F 76.6 °F 29.89 in East 1.0 mph 2.0 mph 95 % 0.00 in
05:54 78.3 °F 76.6 °F 29.89 in Calm   2.0 mph 95 % 0.00 in
05:59 78.3 °F 76.6 °F 29.89 in Calm   2.0 mph 95 % 0.00 in
06:04 78.1 °F 76.5 °F 29.89 in Calm   2.0 mph 95 % 0.00 in
06:09 78.1 °F 76.5 °F 29.90 in Calm   1.0 mph 95 % 0.00 in
06:14 77.9 °F 76.3 °F 29.90 in Calm   1.0 mph 95 % 0.00 in
06:19 77.7 °F 76.1 °F 29.90 in Calm   1.0 mph 95 % 0.00 in
06:24 77.7 °F 76.1 °F 29.90 in Calm   1.0 mph 95 % 0.00 in
06:29 77.5 °F 75.9 °F 29.90 in Calm   1.0 mph 95 % 0.00 in
06:34 77.7 °F 76.1 °F 29.90 in Calm   1.0 mph 95 % 0.00 in
06:39 77.7 °F 76.5 °F 29.91 in Calm   1.0 mph 96 % 0.00 in
06:44 77.7 °F 76.1 °F 29.90 in Calm   1.0 mph 95 % 0.00 in
06:49 77.7 °F 76.5 °F 29.91 in Calm   1.0 mph 96 % 0.00 in
06:54 77.9 °F 76.6 °F 29.91 in Calm   2.0 mph 96 % 0.00 in
06:59 78.1 °F 76.8 °F 29.91 in Calm   2.0 mph 96 % 0.00 in
07:04 78.3 °F 77.0 °F 29.91 in Calm   2.0 mph 96 % 0.00 in
07:09 78.4 °F 76.8 °F 29.91 in Calm   2.0 mph 95 % 0.00 in
07:14 78.6 °F 77.0 °F 29.91 in Calm   3.0 mph 95 % 0.00 in
07:19 78.8 °F 77.2 °F 29.91 in East 3.0 mph 3.0 mph 95 % 0.00 in
07:24 78.8 °F 77.2 °F 29.91 in Calm   3.0 mph 95 % 0.00 in
07:29 79.0 °F 77.4 °F 29.91 in Calm   3.0 mph 95 % 0.00 in
07:34 79.2 °F 77.4 °F 29.91 in Calm   3.0 mph 94 % 0.00 in
07:39 79.5 °F 77.7 °F 29.91 in Calm   3.0 mph 94 % 0.00 in
07:44 79.9 °F 78.1 °F 29.91 in SE 1.0 mph 3.0 mph 94 % 0.00 in
07:49 80.2 °F 78.1 °F 29.91 in SSE 1.0 mph 4.0 mph 93 % 0.00 in
07:54 80.4 °F 78.3 °F 29.92 in SE 2.0 mph 4.0 mph 93 % 0.00 in
07:59 80.8 °F 78.3 °F 29.92 in ESE 3.0 mph 5.0 mph 92 % 0.00 in
08:04 80.8 °F 77.9 °F 29.92 in SSE 2.0 mph 5.0 mph 91 % 0.00 in
08:09 81.1 °F 78.3 °F 29.93 in SSE 1.0 mph 6.0 mph 91 % 0.00 in
08:14 81.3 °F 78.1 °F 29.93 in SSE 5.0 mph 6.0 mph 90 % 0.00 in
08:19 81.5 °F 78.3 °F 29.93 in East 2.0 mph 6.0 mph 90 % 0.00 in
08:25 81.7 °F 78.1 °F 29.93 in SSE 3.0 mph 7.0 mph 89 % 0.00 in
08:30 81.7 °F 77.7 °F 29.93 in East 8.0 mph 8.0 mph 88 % 0.00 in
08:35 81.7 °F 77.4 °F 29.93 in ESE 3.0 mph 9.0 mph 87 % 0.00 in
08:40 81.7 °F 77.4 °F 29.93 in SE 3.0 mph 9.0 mph 87 % 0.00 in
08:45 82.0 °F 77.7 °F 29.93 in ENE 3.0 mph 11.0 mph 87 % 0.00 in
08:50 82.8 °F 78.1 °F 29.93 in East 6.0 mph 11.0 mph 86 % 0.00 in
08:55 83.1 °F 77.7 °F 29.93 in ESE 5.0 mph 11.0 mph 84 % 0.00 in
09:00 83.5 °F 77.7 °F 29.93 in SE 4.0 mph 9.0 mph 83 % 0.00 in
09:05 83.8 °F 77.4 °F 29.93 in SSE 2.0 mph 7.0 mph 81 % 0.00 in
09:10 84.6 °F 78.1 °F 29.93 in SE 1.0 mph 7.0 mph 81 % 0.00 in
09:15 84.7 °F 77.5 °F 29.94 in SW 5.0 mph 7.0 mph 79 % 0.00 in
09:20 84.2 °F 76.6 °F 29.94 in SSE 3.0 mph 7.0 mph 78 % 0.00 in
09:25 83.8 °F 76.3 °F 29.94 in SSW 2.0 mph 7.0 mph 78 % 0.00 in
09:30 83.5 °F 76.3 °F 29.94 in SW 4.0 mph 7.0 mph 79 % 0.00 in
09:35 83.1 °F 75.9 °F 29.94 in South 5.0 mph 7.0 mph 79 % 0.00 in
09:40 83.3 °F 75.4 °F 29.93 in SSE 2.0 mph 7.0 mph 77 % 0.00 in
09:45 83.8 °F 75.9 °F 29.94 in South 6.0 mph 7.0 mph 77 % 0.00 in
09:50 84.6 °F 75.4 °F 29.93 in SSE 4.0 mph 9.0 mph 74 % 0.00 in
09:55 85.5 °F 75.4 °F 29.93 in SE 7.0 mph 9.0 mph 72 % 0.00 in
10:00 85.6 °F 75.2 °F 29.93 in ESE 10.0 mph 12.0 mph 71 % 0.00 in
10:05 86.0 °F 75.6 °F 29.93 in SSE 6.0 mph 12.0 mph 71 % 0.00 in
10:10 86.5 °F 75.6 °F 29.93 in ENE 3.0 mph 12.0 mph 70 % 0.00 in
10:15 86.5 °F 75.2 °F 29.93 in East 5.0 mph 11.0 mph 69 % 0.00 in
10:20 86.7 °F 74.5 °F 29.93 in ESE 5.0 mph 10.0 mph 67 % 0.00 in
10:25 87.1 °F 74.8 °F 29.93 in SSE 2.0 mph 11.0 mph 67 % 0.00 in
10:30 87.4 °F 74.7 °F 29.93 in SE 3.0 mph 11.0 mph 66 % 0.00 in
10:35 87.4 °F 75.2 °F 29.93 in SE 2.0 mph 11.0 mph 67 % 0.00 in
10:40 87.6 °F 74.3 °F 29.93 in East 6.0 mph 10.0 mph 65 % 0.00 in
10:45 87.6 °F 75.4 °F 29.93 in SE 3.0 mph 10.0 mph 67 % 0.00 in
10:50 87.6 °F 74.8 °F 29.93 in SSE 3.0 mph 10.0 mph 66 % 0.00 in
10:55 88.0 °F 75.6 °F 29.93 in SSE 4.0 mph 10.0 mph 67 % 0.00 in
11:00 88.2 °F 75.4 °F 29.93 in South 4.0 mph 9.0 mph 66 % 0.00 in
11:05 88.3 °F 75.9 °F 29.93 in SSE 5.0 mph 9.0 mph 67 % 0.00 in
11:10 88.7 °F 75.4 °F 29.93 in SSE 8.0 mph 8.0 mph 65 % 0.00 in
11:15 88.9 °F 75.2 °F 29.93 in SSE 4.0 mph 8.0 mph 64 % 0.00 in
11:20 88.9 °F 74.7 °F 29.93 in SE 5.0 mph 10.0 mph 63 % 0.00 in
11:25 89.1 °F 75.2 °F 29.93 in SSW 1.0 mph 10.0 mph 64 % 0.00 in
11:30 89.6 °F 74.8 °F 29.93 in SE 8.0 mph 10.0 mph 62 % 0.00 in
11:32 89.6 °F 74.3 °F 29.93 in SSE 6.0 mph 10.0 mph 61 % 0.00 in
11:37 88.9 °F 73.8 °F 29.93 in SE 2.0 mph 10.0 mph 61 % 0.00 in
11:42 89.1 °F 74.3 °F 29.93 in SSW 3.0 mph 10.0 mph 62 % 0.00 in
11:47 89.4 °F 74.7 °F 29.93 in ESE 11.0 mph 11.0 mph 62 % 0.00 in
11:52 89.1 °F 75.2 °F 29.93 in SSE 4.0 mph 11.0 mph 64 % 0.00 in
11:53 89.1 °F 74.3 °F 29.93 in ESE 6.0 mph 11.0 mph 62 % 0.00 in
11:58 89.4 °F 74.7 °F 29.93 in SE 7.0 mph 11.0 mph 62 % 0.00 in
12:03 89.4 °F 74.7 °F 29.93 in ESE 6.0 mph 11.0 mph 62 % 0.00 in
12:08 89.4 °F 74.1 °F 29.93 in East 2.0 mph 11.0 mph 61 % 0.00 in
12:13 89.1 °F 74.3 °F 29.93 in SE 6.0 mph 11.0 mph 62 % 0.00 in
12:18 88.9 °F 77.0 °F 29.93 in SE 5.0 mph 11.0 mph 68 % 0.00 in
12:23 88.7 °F 77.2 °F 29.92 in SE 5.0 mph 11.0 mph 69 % 0.00 in
12:28 88.3 °F 76.8 °F 29.93 in East 3.0 mph 14.0 mph 69 % 0.00 in
12:33 88.3 °F 77.4 °F 29.93 in SE 7.0 mph 14.0 mph 70 % 0.00 in
12:38 88.2 °F 76.3 °F 29.93 in NE 5.0 mph 14.0 mph 68 % 0.00 in
12:43 88.3 °F 76.5 °F 29.92 in ESE 3.0 mph 14.0 mph 68 % 0.00 in
12:48 88.5 °F 76.1 °F 29.93 in ESE 6.0 mph 14.0 mph 67 % 0.00 in
12:53 88.2 °F 75.4 °F 29.92 in SE 4.0 mph 10.0 mph 66 % 0.00 in
12:58 88.0 °F 76.1 °F 29.92 in SE 7.0 mph 11.0 mph 68 % 0.00 in
13:03 87.8 °F 76.3 °F 29.92 in South 3.0 mph 13.0 mph 69 % 0.00 in
13:08 87.8 °F 75.9 °F 29.92 in East 5.0 mph 13.0 mph 68 % 0.00 in
13:13 87.6 °F 75.7 °F 29.92 in SSE 7.0 mph 13.0 mph 68 % 0.00 in
13:14 87.6 °F 75.7 °F 29.92 in SE 7.0 mph 13.0 mph 68 % 0.00 in
13:19 87.4 °F 76.5 °F 29.92 in South 4.0 mph 13.0 mph 70 % 0.00 in
13:24 88.3 °F 77.4 °F 29.92 in SSE 4.0 mph 13.0 mph 70 % 0.00 in
13:29 88.9 °F 77.9 °F 29.92 in East 5.0 mph 13.0 mph 70 % 0.00 in
13:34 89.2 °F 76.5 °F 29.91 in SSE 3.0 mph 11.0 mph 66 % 0.00 in
13:39 89.2 °F 76.5 °F 29.91 in ESE 4.0 mph 13.0 mph 66 % 0.00 in
13:44 89.8 °F 76.5 °F 29.91 in ESE 5.0 mph 13.0 mph 65 % 0.00 in
13:49 90.1 °F 76.3 °F 29.91 in NE 3.0 mph 13.0 mph 64 % 0.00 in
13:54 89.8 °F 75.9 °F 29.91 in ESE 8.0 mph 9.0 mph 64 % 0.00 in
13:59 89.4 °F 75.6 °F 29.91 in ESE 2.0 mph 12.0 mph 64 % 0.00 in
14:04 89.6 °F 75.7 °F 29.91 in ENE 4.0 mph 12.0 mph 64 % 0.00 in
14:09 89.8 °F 76.5 °F 29.91 in East 3.0 mph 12.0 mph 65 % 0.00 in
14:14 89.8 °F 76.8 °F 29.90 in ESE 5.0 mph 11.0 mph 66 % 0.00 in
14:19 90.7 °F 77.4 °F 29.90 in ESE 5.0 mph 11.0 mph 65 % 0.00 in
14:24 90.5 °F 76.6 °F 29.90 in ESE 2.0 mph 10.0 mph 64 % 0.00 in
14:29 90.1 °F 76.8 °F 29.90 in SE 3.0 mph 10.0 mph 65 % 0.00 in
14:31 90.0 °F 76.6 °F 29.90 in SSE 6.0 mph 8.0 mph 65 % 0.00 in
14:36 90.0 °F 76.1 °F 29.90 in ESE 4.0 mph 12.0 mph 64 % 0.00 in
14:41 89.8 °F 75.9 °F 29.90 in SE 4.0 mph 12.0 mph 64 % 0.00 in
14:42 89.8 °F 75.9 °F 29.90 in NNE 3.0 mph 12.0 mph 64 % 0.00 in
14:52 90.0 °F 76.6 °F 29.90 in SE 4.0 mph 14.0 mph 65 % 0.00 in
14:57 89.8 °F 76.8 °F 29.89 in SE 4.0 mph 14.0 mph 66 % 0.00 in
15:02 89.4 °F 77.0 °F 29.89 in ESE 7.0 mph 14.0 mph 67 % 0.00 in
15:07 90.0 °F 77.5 °F 29.89 in ESE 8.0 mph 14.0 mph 67 % 0.00 in
15:12 90.0 °F 77.5 °F 29.88 in SE 10.0 mph 14.0 mph 67 % 0.00 in
15:17 90.1 °F 76.8 °F 29.88 in South 2.0 mph 13.0 mph 65 % 0.00 in
15:22 90.0 °F 76.6 °F 29.88 in East 6.0 mph 13.0 mph 65 % 0.00 in
15:27 90.3 °F 77.0 °F 29.88 in ESE 7.0 mph 13.0 mph 65 % 0.00 in
15:32 90.7 °F 76.8 °F 29.88 in SE 3.0 mph 12.0 mph 64 % 0.00 in
15:37 90.7 °F 76.8 °F 29.87 in SE 3.0 mph 11.0 mph 64 % 0.00 in
15:42 91.2 °F 77.4 °F 29.87 in ESE 6.0 mph 12.0 mph 64 % 0.00 in
15:47 90.9 °F 77.9 °F 29.88 in ESE 6.0 mph 12.0 mph 66 % 0.00 in
15:52 90.7 °F 78.6 °F 29.87 in SSE 2.0 mph 12.0 mph 68 % 0.00 in
15:57 90.7 °F 77.4 °F 29.87 in ESE 2.0 mph 11.0 mph 65 % 0.00 in
16:02 91.2 °F 77.7 °F 29.87 in SSE 6.0 mph 11.0 mph 65 % 0.00 in
16:07 90.9 °F 77.5 °F 29.87 in ESE 10.0 mph 11.0 mph 65 % 0.00 in
16:12 90.3 °F 77.0 °F 29.87 in ESE 7.0 mph 11.0 mph 65 % 0.00 in
16:17 90.1 °F 78.1 °F 29.87 in ESE 6.0 mph 12.0 mph 68 % 0.00 in
16:22 90.7 °F 77.4 °F 29.87 in SE 8.0 mph 12.0 mph 65 % 0.00 in
16:27 90.1 °F 77.7 °F 29.87 in ESE 6.0 mph 12.0 mph 67 % 0.00 in
16:32 90.1 °F 76.8 °F 29.87 in SSE 4.0 mph 12.0 mph 65 % 0.00 in
16:37 90.1 °F 77.7 °F 29.87 in ESE 7.0 mph 12.0 mph 67 % 0.00 in
16:42 90.3 °F 78.3 °F 29.86 in East 5.0 mph 12.0 mph 68 % 0.00 in
16:47 91.0 °F 78.1 °F 29.86 in SE 7.0 mph 12.0 mph 66 % 0.00 in
16:52 90.9 °F 77.5 °F 29.86 in East 1.0 mph 12.0 mph 65 % 0.00 in
16:57 90.7 °F 77.4 °F 29.86 in SSE 4.0 mph 12.0 mph 65 % 0.00 in
17:02 90.3 °F 76.5 °F 29.86 in ENE 4.0 mph 14.0 mph 64 % 0.00 in
17:03 90.3 °F 76.5 °F 29.86 in SE 6.0 mph 14.0 mph 64 % 0.00 in
17:08 90.5 °F 77.2 °F 29.86 in ESE 9.0 mph 14.0 mph 65 % 0.00 in
17:13 90.3 °F 76.5 °F 29.86 in ESE 10.0 mph 14.0 mph 64 % 0.00 in
17:18 90.0 °F 77.0 °F 29.86 in SE 6.0 mph 13.0 mph 66 % 0.00 in
17:23 89.2 °F 77.4 °F 29.87 in SE 9.0 mph 14.0 mph 68 % 0.00 in
17:28 88.2 °F 77.5 °F 29.87 in East 7.0 mph 14.0 mph 71 % 0.00 in
17:33 88.2 °F 77.9 °F 29.86 in SSE 5.0 mph 14.0 mph 72 % 0.00 in
17:38 88.2 °F 77.9 °F 29.86 in SE 7.0 mph 14.0 mph 72 % 0.00 in
17:43 87.8 °F 77.2 °F 29.86 in SE 7.0 mph 13.0 mph 71 % 0.00 in
17:48 87.4 °F 77.4 °F 29.86 in ESE 9.0 mph 14.0 mph 72 % 0.00 in
17:53 88.0 °F 77.9 °F 29.86 in East 4.0 mph 14.0 mph 72 % 0.00 in
17:58 88.3 °F 77.4 °F 29.86 in SE 6.0 mph 14.0 mph 70 % 0.00 in
18:03 88.2 °F 77.2 °F 29.86 in South 7.0 mph 13.0 mph 70 % 0.00 in
18:08 88.2 °F 77.5 °F 29.86 in SE 5.0 mph 15.0 mph 71 % 0.00 in
18:13 88.2 °F 77.5 °F 29.86 in SSE 12.0 mph 15.0 mph 71 % 0.00 in
18:18 88.3 °F 77.4 °F 29.86 in ESE 8.0 mph 15.0 mph 70 % 0.00 in
18:23 88.0 °F 77.0 °F 29.86 in SSE 12.0 mph 16.0 mph 70 % 0.00 in
18:28 87.8 °F 76.8 °F 29.86 in SE 10.0 mph 16.0 mph 70 % 0.00 in
18:33 87.4 °F 77.4 °F 29.86 in SE 3.0 mph 16.0 mph 72 % 0.00 in
18:38 87.3 °F 76.6 °F 29.86 in ESE 4.0 mph 14.0 mph 71 % 0.00 in
18:43 87.4 °F 76.8 °F 29.86 in SSE 5.0 mph 15.0 mph 71 % 0.00 in
18:48 87.4 °F 76.5 °F 29.86 in ESE 5.0 mph 15.0 mph 70 % 0.00 in
18:53 87.4 °F 76.8 °F 29.86 in SSE 10.0 mph 15.0 mph 71 % 0.00 in
18:58 87.4 °F 76.8 °F 29.86 in SE 6.0 mph 13.0 mph 71 % 0.00 in
19:03 87.3 °F 76.6 °F 29.86 in SE 6.0 mph 15.0 mph 71 % 0.00 in
19:08 86.9 °F 76.3 °F 29.86 in SE 10.0 mph 15.0 mph 71 % 0.00 in
19:13 86.7 °F 76.6 °F 29.86 in SE 8.0 mph 17.0 mph 72 % 0.00 in
19:18 86.5 °F 76.5 °F 29.86 in South 7.0 mph 17.0 mph 72 % 0.00 in
19:23 86.4 °F 76.3 °F 29.86 in SE 5.0 mph 17.0 mph 72 % 0.00 in
19:28 86.4 °F 76.6 °F 29.86 in SE 7.0 mph 13.0 mph 73 % 0.00 in
19:33 86.2 °F 77.0 °F 29.86 in SE 5.0 mph 11.0 mph 74 % 0.00 in
19:38 86.0 °F 76.8 °F 29.87 in ESE 8.0 mph 11.0 mph 74 % 0.00 in
19:43 85.6 °F 76.8 °F 29.87 in ESE 5.0 mph 12.0 mph 75 % 0.00 in
19:48 85.5 °F 76.6 °F 29.87 in SE 7.0 mph 12.0 mph 75 % 0.00 in
19:53 85.3 °F 76.5 °F 29.87 in ESE 7.0 mph 16.0 mph 75 % 0.00 in
19:58 85.3 °F 76.8 °F 29.87 in SE 3.0 mph 16.0 mph 76 % 0.00 in
20:03 84.9 °F 76.5 °F 29.87 in SSE 6.0 mph 16.0 mph 76 % 0.00 in
20:08 84.9 °F 76.8 °F 29.87 in SE 7.0 mph 15.0 mph 77 % 0.00 in
20:13 84.9 °F 76.8 °F 29.88 in SE 8.0 mph 15.0 mph 77 % 0.00 in
20:18 84.7 °F 77.2 °F 29.88 in East 6.0 mph 15.0 mph 78 % 0.00 in
20:23 84.6 °F 77.4 °F 29.87 in ENE 7.0 mph 11.0 mph 79 % 0.00 in
20:28 84.4 °F 77.2 °F 29.88 in ESE 6.0 mph 11.0 mph 79 % 0.00 in
20:33 84.2 °F 77.0 °F 29.88 in SSE 2.0 mph 11.0 mph 79 % 0.00 in
20:38 84.0 °F 76.8 °F 29.88 in SSE 5.0 mph 11.0 mph 79 % 0.00 in
20:43 83.8 °F 76.6 °F 29.88 in SE 7.0 mph 9.0 mph 79 % 0.00 in
20:48 83.7 °F 76.8 °F 29.88 in East 6.0 mph 12.0 mph 80 % 0.00 in
20:53 83.7 °F 76.8 °F 29.88 in SE 4.0 mph 12.0 mph 80 % 0.00 in
20:58 83.7 °F 77.2 °F 29.88 in SE 3.0 mph 12.0 mph 81 % 0.00 in
21:03 83.5 °F 77.0 °F 29.89 in SE 5.0 mph 13.0 mph 81 % 0.00 in
21:08 83.3 °F 76.8 °F 29.88 in ESE 5.0 mph 13.0 mph 81 % 0.00 in
21:13 83.1 °F 77.0 °F 29.89 in SE 8.0 mph 13.0 mph 82 % 0.00 in
21:18 82.9 °F 76.8 °F 29.89 in ESE 6.0 mph 13.0 mph 82 % 0.00 in
21:23 82.9 °F 77.2 °F 29.89 in East 7.0 mph 13.0 mph 83 % 0.00 in
21:29 82.8 °F 77.0 °F 29.89 in SE 4.0 mph 10.0 mph 83 % 0.00 in
21:31 82.8 °F 77.0 °F 29.89 in East 5.0 mph 10.0 mph 83 % 0.00 in
21:36 82.8 °F 77.0 °F 29.89 in ESE 12.0 mph 12.0 mph 83 % 0.00 in
21:41 82.6 °F 76.8 °F 29.90 in SSE 7.0 mph 12.0 mph 83 % 0.00 in
21:46 82.6 °F 76.8 °F 29.90 in SE 3.0 mph 12.0 mph 83 % 0.00 in
21:51 82.6 °F 76.8 °F 29.90 in SE 4.0 mph 12.0 mph 83 % 0.00 in
21:56 82.4 °F 76.6 °F 29.90 in ESE 5.0 mph 10.0 mph 83 % 0.00 in
22:01 82.4 °F 76.6 °F 29.91 in ESE 6.0 mph 12.0 mph 83 % 0.00 in
22:06 82.2 °F 76.8 °F 29.91 in ESE 3.0 mph 12.0 mph 84 % 0.00 in
22:11 82.2 °F 76.8 °F 29.91 in ESE 6.0 mph 12.0 mph 84 % 0.00 in
22:17 82.0 °F 76.6 °F 29.91 in SSE 4.0 mph 9.0 mph 84 % 0.00 in
22:22 82.0 °F 77.0 °F 29.91 in ESE 6.0 mph 9.0 mph 85 % 0.00 in
22:27 81.9 °F 76.8 °F 29.91 in SSE 6.0 mph 9.0 mph 85 % 0.00 in
22:32 81.9 °F 76.8 °F 29.92 in East 5.0 mph 9.0 mph 85 % 0.00 in
22:37 81.9 °F 77.2 °F 29.92 in ESE 4.0 mph 10.0 mph 86 % 0.00 in
22:42 81.7 °F 77.0 °F 29.92 in ESE 4.0 mph 11.0 mph 86 % 0.00 in
22:47 81.7 °F 77.0 °F 29.92 in SE 5.0 mph 11.0 mph 86 % 0.00 in
22:52 81.7 °F 77.0 °F 29.92 in East 2.0 mph 11.0 mph 86 % 0.00 in
22:57 81.5 °F 77.2 °F 29.93 in ESE 5.0 mph 7.0 mph 87 % 0.00 in
23:02 81.3 °F 77.0 °F 29.92 in ENE 3.0 mph 8.0 mph 87 % 0.00 in
23:07 81.3 °F 77.0 °F 29.92 in SSW 2.0 mph 8.0 mph 87 % 0.00 in
23:08 81.3 °F 77.0 °F 29.92 in SE 3.0 mph 8.0 mph 87 % 0.00 in
23:13 81.3 °F 77.0 °F 29.92 in SE 3.0 mph 8.0 mph 87 % 0.00 in
23:18 81.1 °F 77.2 °F 29.92 in SE 3.0 mph 6.0 mph 88 % 0.00 in
23:23 81.1 °F 77.2 °F 29.92 in SE 3.0 mph 5.0 mph 88 % 0.00 in
23:28 81.1 °F 77.2 °F 29.92 in SE 4.0 mph 6.0 mph 88 % 0.00 in
23:33 81.0 °F 77.0 °F 29.92 in SE 4.0 mph 6.0 mph 88 % 0.00 in
23:38 81.0 °F 77.0 °F 29.92 in SE 2.0 mph 6.0 mph 88 % 0.00 in
23:43 81.0 °F 77.4 °F 29.91 in ESE 2.0 mph 6.0 mph 89 % 0.00 in
23:48 81.0 °F 77.4 °F 29.91 in East 4.0 mph 6.0 mph 89 % 0.00 in
23:53 80.8 °F 77.2 °F 29.91 in SE 3.0 mph 6.0 mph 89 % 0.00 in
23:56 80.8 °F 77.2 °F 29.91 in ENE 6.0 mph 6.0 mph 89 % 0.00 in
Spring, Texas: Villages of Bridgestone
Compliments of Weather Underground - 3.25 mb

Script developed by  Jim McMurry - jmcmurry@mwt.net Adapted for the template by  Wim van der Kuil - Leuven-Template.eu

You find our weather info also at:

UK Metoffice

WeatherCloud

Weather Underground

Mid-South Weather Network

AWEKAS

Citizen Weather Observer Program (CWOP)

HAMweather, WeatherForYou, PWS Weather

Equipment we use:

Weather-station
Davis Vantage Vue

Weather-program
Meteohub

Weather-server
Debian 7.9 x86 (Guest)

Provider
DreamHost

Davis Vantage Vue

Meteohub

Debian 7.9 x86 (Guest)

DreamHost